ADDS METAR Data INFO
IDs: Format: Raw Decoded Include TAF

Data at: 0853 UTC 19 Jun 2018

PATK 190753Z AUTO VRB03KT 10SM BKN060 BKN080 12/11 A2990 RMK AO2 SLP126 T01220106 TSNO
PATK 190653Z AUTO 00000KT 10SM OVC070 13/11 A2988 RMK AO2 SLP121 T01280106 TSNO
PATK 190553Z AUTO VRB05KT 10SM OVC060 14/10 A2986 RMK AO2 SLP113 60000 T01390100 10144 20128 52016 TSNO
PATK 190453Z AUTO 08003KT 10SM OVC060 13/11 A2984 RMK AO2 SLP107 T01330111 TSNO
PATK 190353Z AUTO 00000KT 10SM SCT039 OVC065 14/12 A2983 RMK AO2 RAE11 SLP102 P0000 T01390117 TSNO
PATK 190253Z AUTO 00000KT 10SM -RA FEW018 SCT041 OVC070 14/12 A2981 RMK AO2 RAE06B51 SLP097 P0000 60000 T01390117 52016 TSNO
PATK 190153Z AUTO 33003KT 10SM -RA SCT036 OVC070 14/12 A2979 RMK AO2 RAB52 SLP092 P0000 T01440117 TSNO
PATK 190053Z AUTO 31004KT 10SM BKN043 OVC070 14/12 A2978 RMK AO2 RAE06 SLP086 P0000 T01440117 TSNO
PATK 182353Z AUTO 28004KT 10SM -RA SCT008 BKN037 OVC080 14/12 A2976 RMK AO2 RAE27B50 SLP080 P0000 60007 T01390122 10139 20111 51028 TSNO
PATK 182341Z AUTO 25003KT 10SM SCT008 SCT049 OVC080 14/12 A2976 RMK AO2 RAE27 P0000 T01390122 TSNO
PATK 182253Z AUTO 23005KT 7SM -RA FEW040 SCT047 OVC055 13/12 A2974 RMK AO2 SLP074 P0002 T01330117 TSNO
PATK 182153Z AUTO 00000KT 10SM -RA OVC070 14/12 A2970 RMK AO2 SLP061 P0004 T01390122 TSNO
PATK 182053Z AUTO 00000KT 10SM -RA OVC075 14/11 A2968 RMK AO2 SLP052 P0000 60001 T01390111 55003 TSNO
PATK 181953Z AUTO 32004KT 10SM -RA OVC080 13/11 A2966 RMK AO2 RAE1854B32 SLP047 P0000 T01330111 TSNO
PATK 181853Z AUTO VRB03KT 10SM -RA BKN090 12/11 A2967 RMK AO2 SLP048 P0001 T01220106 TSNO
PATK 181753Z AUTO 35004KT 10SM -RA OVC080 11/09 A2969 RMK AO2 SLP055 P0002 60016 T01110094 10111 20100 58007 TSNO
PATK 181653Z AUTO 34004KT 7SM -RA OVC070 11/09 A2970 RMK AO2 SLP060 P0005 T01060094 TSNO
PATK 181553Z AUTO 35005KT 7SM -RA OVC070 11/09 A2969 RMK AO2 SLP058 P0004 T01060089 TSNO
PATK 181453Z AUTO 34005KT 9SM -RA OVC075 10/09 A2971 RMK AO2 SLP062 P0001 60005 T01000089 56025 TSNO
PATK 181353Z AUTO 02004KT 10SM -RA OVC085 10/09 A2973 RMK AO2 SLP071 P0002 T01000089 TSNO
PATK 181253Z AUTO 34007KT 10SM -RA OVC075 11/09 A2975 RMK AO2 SLP077 P0002 T01060089 TSNO
PATK 181153Z AUTO 02003KT 10SM -RA BKN080 OVC100 10/09 A2978 RMK AO2 RAE20B47 SLP088 P0000 60004 70030 T01000089 10122 20100 58024 TSNO
PATK 181053Z AUTO 03004KT 10SM -RA OVC080 10/09 A2981 RMK AO2 SLP099 P0001 T01000089 TSNO
PATK 180953Z AUTO 04004KT 10SM -RA OVC060 11/09 A2985 RMK AO2 SLP110 P0003 T01060089 TSNO
PATK 180853Z AUTO 03003KT 10SM -RA BKN065 OVC080 11/09 A2985 RMK AO2 SLP112 P0000 60000 T01060089 401330094 56012 TSNO
PATK 180753Z AUTO 00000KT 10SM -RA OVC070 11/09 A2986 RMK AO2 RAB31 SLP115 P0000 T01110089 TSNO
PATK 180653Z AUTO 01003KT 10SM OVC110 12/09 A2988 RMK AO2 SLP120 T01170089 TSNO
PATK 180553Z AUTO 34003KT 10SM SCT100 12/10 A2989 RMK AO2 SLP124 60001 T01220100 10133 20117 56019 TSNO
PATK 180453Z AUTO 35004KT 10SM SCT080 13/10 A2991 RMK AO2 SLP131 T01280100 TSNO
PATK 180353Z 35003KT 10SM FEW080 BKN110 13/10 A2992 RMK AO2 RAE16 SLP136 P0001 T01280100
PATK 180253Z AUTO 26003KT 9SM -RA OVC060 12/09 A2995 RMK AO2 RAB0158E18B36 SLP143 P0000 60000 T01220089 56007 TSNO
PATK 180153Z AUTO VRB04KT 10SM SCT070 OVC090 13/09 A2995 RMK AO2 SLP145 T01330094 TSNO
PATK 180053Z 01003KT 10SM BKN080 OVC090 12/09 A2995 RMK AO2 SLP146 T01220094
PATK 172353Z 01006KT 10SM OVC075 12/09 A2997 RMK AO2 SLP150 60012 T01170094 10117 20106 50003
PATK 172337Z VRB03KT 10SM FEW019 OVC075 12/09 A2997 RMK AO2 T01170094
PATK 172253Z 36005KT 10SM FEW008 BKN018 OVC060 12/09 A2997 RMK AO2 RAE46 SLP152 P0002 T01170094
PATK 172250Z 02004KT 10SM FEW008 BKN018 OVC060 12/09 A2997 RMK AO2 RAE46 P0002
PATK 172153Z 29003KT 10SM -RA BKN010 BKN020 OVC050 11/09 A2998 RMK AO2 SLP154 P0002 T01110094
PATK 172122Z 31003KT 10SM -RA SCT010 BKN023 OVC050 11/09 A2996 RMK AO2 P0002 T01110094